createdAt,value
2019-02-09T00:00:31.149Z,12.03
2019-02-09T00:02:59.774Z,10.60
2019-02-09T00:05:28.345Z,12.17
2019-02-09T00:07:56.921Z,12.70
2019-02-09T00:10:25.544Z,13.53
2019-02-09T00:12:54.061Z,12.63
2019-02-09T00:15:22.688Z,10.90
2019-02-09T00:17:51.289Z,10.83
2019-02-09T00:20:20.272Z,14.30
2019-02-09T00:22:48.920Z,13.47
2019-02-09T00:25:19.815Z,15.57
2019-02-09T00:27:48.454Z,13.37
2019-02-09T00:30:20.088Z,14.97
2019-02-09T00:32:48.735Z,14.53
2019-02-09T00:35:19.519Z,16.10
2019-02-09T00:37:48.172Z,13.90
2019-02-09T00:40:27.889Z,16.03
2019-02-09T00:42:56.541Z,20.57
2019-02-09T00:45:26.229Z,15.07
2019-02-09T00:47:54.940Z,18.10
2019-02-09T00:50:23.810Z,16.17
2019-02-09T00:52:52.383Z,15.90
2019-02-09T00:55:27.893Z,17.87
2019-02-09T00:57:56.471Z,16.90
2019-02-09T01:00:26.380Z,17.43
2019-02-09T01:02:55.085Z,18.67
2019-02-09T01:05:26.969Z,17.00
2019-02-09T01:07:55.639Z,18.07
2019-02-09T01:10:26.676Z,16.73
2019-02-09T01:12:55.219Z,15.67
2019-02-09T01:15:23.884Z,16.70
2019-02-09T01:17:52.430Z,15.40
2019-02-09T01:20:26.059Z,15.07
2019-02-09T01:22:56.086Z,16.03
2019-02-09T01:25:24.641Z,17.60
2019-02-09T01:27:53.249Z,19.83
2019-02-09T01:30:24.615Z,17.40
2019-02-09T01:32:53.441Z,18.57
2019-02-09T01:35:22.251Z,20.47
2019-02-09T01:37:51.466Z,16.50
2019-02-09T01:40:22.106Z,20.40
2019-02-09T01:42:50.985Z,16.13
2019-02-09T01:45:22.579Z,19.90
2019-02-09T01:47:51.217Z,16.50
2019-02-09T01:50:21.339Z,18.53
2019-02-09T01:52:49.839Z,18.20
2019-02-09T01:55:18.637Z,18.17
2019-02-09T01:57:47.273Z,18.63
2019-02-09T02:00:24.309Z,19.93
2019-02-09T02:02:53.149Z,17.13
2019-02-09T02:05:23.323Z,17.67
2019-02-09T02:07:52.047Z,17.77
2019-02-09T02:10:28.630Z,15.80
2019-02-09T02:12:57.617Z,19.70
2019-02-09T02:15:27.352Z,18.57
2019-02-09T02:17:56.182Z,18.40
2019-02-09T02:20:27.373Z,20.30
2019-02-09T02:22:56.056Z,17.63
2019-02-09T02:25:25.061Z,17.07
2019-02-09T02:27:53.722Z,16.13
2019-02-09T02:30:33.776Z,14.17
2019-02-09T02:33:02.511Z,16.03
2019-02-09T02:35:31.124Z,15.60
2019-02-09T02:37:59.699Z,17.13
2019-02-09T02:40:28.585Z,13.57
2019-02-09T02:42:57.146Z,12.50
2019-02-09T02:45:26.255Z,12.60
2019-02-09T02:47:54.911Z,13.13
2019-02-09T02:50:24.826Z,15.50
2019-02-09T02:52:53.545Z,14.80
2019-02-09T02:55:32.789Z,15.57
2019-02-09T02:58:01.437Z,13.83
2019-02-09T03:00:33.797Z,12.70
2019-02-09T03:03:03.008Z,14.07
2019-02-09T03:05:31.615Z,12.87
2019-02-09T03:08:00.366Z,17.50
2019-02-09T03:10:28.980Z,14.60
2019-02-09T03:12:57.611Z,15.30
2019-02-09T03:15:28.869Z,13.10
2019-02-09T03:17:57.480Z,14.50
2019-02-09T03:20:26.112Z,15.23
2019-02-09T03:22:54.806Z,13.17
2019-02-09T03:25:31.504Z,12.73
2019-02-09T03:28:00.162Z,15.17
2019-02-09T03:30:28.862Z,14.03
2019-02-09T03:32:57.564Z,13.47
2019-02-09T03:35:26.267Z,14.03
2019-02-09T03:37:54.971Z,13.03
2019-02-09T03:40:27.537Z,11.63
2019-02-09T03:42:56.077Z,15.70
2019-02-09T03:45:30.300Z,13.00
2019-02-09T03:47:59.356Z,12.03
2019-02-09T03:50:30.388Z,13.17
2019-02-09T03:52:59.297Z,12.63
2019-02-09T03:55:28.194Z,13.37
2019-02-09T03:57:56.752Z,15.03
2019-02-09T04:00:27.478Z,13.57
2019-02-09T04:02:56.174Z,12.80
2019-02-09T04:05:24.870Z,11.30
2019-02-09T04:07:53.575Z,12.87
2019-02-09T04:10:24.620Z,12.40
2019-02-09T04:12:59.611Z,11.17
2019-02-09T04:15:28.986Z,9.40
2019-02-09T04:17:57.646Z,13.37
2019-02-09T04:20:26.555Z,12.33
2019-02-09T04:22:55.461Z,9.87
2019-02-09T04:25:24.154Z,10.70
2019-02-09T04:27:53.000Z,9.57
2019-02-09T04:30:26.974Z,12.87
2019-02-09T04:32:55.678Z,10.50
2019-02-09T04:35:24.917Z,10.50
2019-02-09T04:37:53.682Z,11.47
2019-02-09T04:40:26.976Z,10.83
2019-02-09T04:42:55.801Z,9.77
2019-02-09T04:45:24.715Z,8.80
2019-02-09T04:47:53.341Z,8.47
2019-02-09T04:50:22.168Z,7.80
2019-02-09T04:52:50.862Z,6.73
2019-02-09T04:55:23.991Z,8.10
2019-02-09T04:57:52.614Z,8.27
2019-02-09T05:00:31.538Z,7.80
2019-02-09T05:03:00.533Z,7.60
2019-02-09T05:05:30.651Z,7.87
2019-02-09T05:07:59.282Z,7.10
2019-02-09T05:10:27.930Z,7.07
2019-02-09T05:12:56.488Z,7.00
2019-02-09T05:15:25.394Z,6.70
2019-02-09T05:17:53.873Z,7.13
2019-02-09T05:20:25.058Z,6.70
2019-02-09T05:22:54.656Z,8.50
2019-02-09T05:25:23.584Z,7.60
2019-02-09T05:27:52.368Z,9.97
2019-02-09T05:30:26.014Z,8.73
2019-02-09T05:32:55.098Z,8.30
2019-02-09T05:35:23.802Z,6.67
2019-02-09T05:37:52.394Z,8.30
2019-02-09T05:40:25.662Z,6.90
2019-02-09T05:42:54.483Z,7.80
2019-02-09T05:45:25.644Z,6.63
2019-02-09T05:47:54.354Z,7.03
2019-02-09T05:50:23.143Z,7.30
2019-02-09T05:52:51.649Z,10.37
2019-02-09T05:55:20.440Z,6.63
2019-02-09T05:57:49.365Z,7.60
2019-02-09T06:00:22.333Z,7.33
2019-02-09T06:02:50.811Z,7.10
2019-02-09T06:05:19.303Z,5.90
2019-02-09T06:07:47.801Z,7.77
2019-02-09T06:10:18.125Z,5.77
2019-02-09T06:12:46.688Z,5.37
2019-02-09T06:15:26.849Z,6.27
2019-02-09T06:17:55.588Z,6.10
2019-02-09T06:20:30.943Z,5.30
2019-02-09T06:22:59.788Z,5.60
2019-02-09T06:25:28.448Z,6.80
2019-02-09T06:27:57.117Z,5.77
2019-02-09T06:30:28.184Z,6.23
2019-02-09T06:32:56.805Z,5.13
2019-02-09T06:35:25.772Z,5.37
2019-02-09T06:37:54.578Z,4.83
2019-02-09T06:40:24.259Z,4.00
2019-02-09T06:42:53.238Z,4.73
2019-02-09T06:45:26.727Z,3.10
2019-02-09T06:48:16.572Z,2.97
2019-02-09T06:50:45.107Z,3.13
2019-02-09T06:53:13.725Z,3.43
2019-02-09T06:55:42.239Z,2.87
2019-02-09T06:58:10.837Z,4.60
2019-02-09T07:00:39.316Z,2.90
2019-02-09T07:03:07.851Z,4.63
2019-02-09T07:05:36.441Z,2.93
2019-02-09T07:08:05.612Z,3.27
2019-02-09T07:10:34.249Z,4.13
2019-02-09T07:13:02.885Z,2.97
2019-02-09T07:15:38.543Z,2.50
2019-02-09T07:18:07.744Z,4.23
2019-02-09T07:20:36.595Z,2.33
2019-02-09T07:23:06.881Z,3.70
2019-02-09T07:25:35.593Z,4.57
2019-02-09T07:28:04.873Z,2.20
2019-02-09T07:30:33.971Z,2.63
2019-02-09T07:33:02.861Z,2.40
2019-02-09T07:35:31.454Z,3.03
2019-02-09T07:38:00.018Z,1.93
2019-02-09T07:40:29.143Z,2.07
2019-02-09T07:42:57.821Z,2.97
2019-02-09T07:45:31.452Z,2.93
2019-02-09T07:48:00.127Z,2.47
2019-02-09T07:50:28.976Z,3.30
2019-02-09T07:52:57.942Z,2.97
2019-02-09T07:55:26.530Z,4.40
2019-02-09T07:57:55.216Z,4.37
2019-02-09T08:00:31.990Z,2.20
2019-02-09T08:03:00.942Z,2.37
2019-02-09T08:05:31.592Z,1.83
2019-02-09T08:08:00.260Z,2.17
2019-02-09T08:10:33.808Z,2.50
2019-02-09T08:13:04.613Z,2.23
2019-02-09T08:15:33.755Z,1.90
2019-02-09T08:18:02.529Z,2.40
2019-02-09T08:20:32.053Z,1.80
2019-02-09T08:23:05.974Z,3.17
2019-02-09T08:25:36.942Z,2.00
2019-02-09T08:28:08.014Z,2.67
2019-02-09T08:30:40.325Z,2.67
2019-02-09T08:33:09.552Z,2.20
2019-02-09T08:35:38.292Z,2.20
2019-02-09T08:38:07.513Z,2.20
2019-02-09T08:40:36.270Z,3.20
2019-02-09T08:43:05.193Z,2.07
2019-02-09T08:45:33.712Z,3.20
2019-02-09T08:48:02.264Z,2.40
2019-02-09T08:50:33.898Z,1.90
2019-02-09T08:53:02.405Z,3.07
2019-02-09T08:55:31.138Z,2.23
2019-02-09T08:57:59.837Z,2.50
2019-02-09T09:00:31.311Z,1.53
2019-02-09T09:03:00.624Z,1.60
2019-02-09T09:05:29.396Z,2.97
2019-02-09T09:07:58.297Z,3.60
2019-02-09T09:10:31.548Z,3.97
2019-02-09T09:13:00.886Z,2.37
2019-02-09T09:15:47.687Z,1.67
2019-02-09T09:18:16.670Z,1.70
2019-02-09T09:20:51.235Z,2.80
2019-02-09T09:23:19.846Z,1.90
2019-02-09T09:25:48.644Z,4.50
2019-02-09T09:28:17.458Z,3.50
2019-02-09T09:30:47.550Z,1.97
2019-02-09T09:33:16.281Z,2.27
2019-02-09T09:35:44.987Z,2.30
2019-02-09T09:38:13.650Z,2.83
2019-02-09T09:40:45.342Z,2.00
2019-02-09T09:43:14.138Z,2.10
2019-02-09T09:45:43.768Z,1.50
2019-02-09T09:48:20.744Z,2.27
2019-02-09T09:50:49.318Z,2.53
2019-02-09T09:53:18.008Z,4.23
2019-02-09T09:55:46.625Z,2.93
2019-02-09T09:58:16.708Z,2.57
2019-02-09T10:00:45.390Z,2.83
2019-02-09T10:03:14.044Z,1.50
2019-02-09T10:05:42.673Z,1.93
2019-02-09T10:08:11.419Z,3.23
2019-02-09T10:10:40.234Z,2.30
2019-02-09T10:13:08.823Z,1.77
2019-02-09T10:15:37.323Z,2.17
2019-02-09T10:18:06.239Z,3.20
2019-02-09T10:20:34.887Z,1.67
2019-02-09T10:23:03.671Z,1.87
2019-02-09T10:25:32.268Z,3.50
2019-02-09T10:28:00.945Z,2.40
2019-02-09T10:30:34.145Z,3.80
2019-02-09T10:33:02.728Z,5.30
2019-02-09T10:35:31.382Z,3.10
2019-02-09T10:38:00.045Z,2.33
2019-02-09T10:40:34.218Z,6.07
2019-02-09T10:43:03.546Z,3.07
2019-02-09T10:45:32.847Z,4.67
2019-02-09T10:48:02.528Z,2.30
2019-02-09T10:50:42.846Z,3.83
2019-02-09T10:53:11.448Z,2.97
2019-02-09T10:55:40.170Z,3.77
2019-02-09T10:58:10.059Z,7.67
2019-02-09T11:00:44.674Z,1.97
2019-02-09T11:03:13.569Z,2.20
2019-02-09T11:05:42.381Z,2.37
2019-02-09T11:08:10.959Z,3.10
2019-02-09T11:10:39.635Z,2.83
2019-02-09T11:13:08.306Z,2.70
2019-02-09T11:15:37.008Z,3.53
2019-02-09T11:18:06.844Z,2.40
2019-02-09T11:20:35.469Z,2.37
2019-02-09T11:23:04.791Z,1.67
2019-02-09T11:25:33.419Z,2.03
2019-02-09T11:28:01.639Z,3.17
2019-02-09T11:30:30.943Z,3.70
2019-02-09T11:33:02.436Z,1.73
2019-02-09T11:35:29.777Z,3.53
2019-02-09T11:37:58.326Z,3.17
2019-02-09T11:40:28.823Z,2.93
2019-02-09T11:42:57.587Z,2.83
2019-02-09T11:45:28.955Z,4.23
2019-02-09T11:47:57.825Z,2.73
2019-02-09T11:50:26.605Z,2.17
2019-02-09T11:52:55.173Z,4.17
2019-02-09T11:55:24.235Z,2.43
2019-02-09T11:57:52.931Z,1.50
2019-02-09T12:00:36.001Z,1.87
2019-02-09T12:03:13.943Z,2.87
2019-02-09T12:05:35.659Z,5.47
2019-02-09T12:08:05.744Z,3.13
2019-02-09T12:10:34.479Z,3.30
2019-02-09T12:13:03.109Z,2.87
2019-02-09T12:15:40.054Z,2.33
2019-02-09T12:18:13.593Z,4.47
2019-02-09T12:20:42.307Z,3.27
2019-02-09T12:23:10.918Z,1.70
2019-02-09T12:25:39.834Z,4.37
2019-02-09T12:28:11.000Z,3.30
2019-02-09T12:30:40.694Z,3.43
2019-02-09T12:33:11.232Z,5.07
2019-02-09T12:35:39.992Z,3.37
2019-02-09T12:38:09.406Z,2.70
2019-02-09T12:40:38.382Z,3.00
2019-02-09T12:43:07.350Z,2.30
2019-02-09T12:45:38.749Z,4.30
2019-02-09T12:48:08.039Z,1.93
2019-02-09T12:50:36.836Z,2.57
2019-02-09T12:53:06.397Z,2.70
2019-02-09T12:55:34.972Z,3.00
2019-02-09T12:58:03.690Z,4.33
2019-02-09T13:00:34.961Z,3.00
2019-02-09T13:03:06.560Z,4.27
2019-02-09T13:05:35.205Z,6.03
2019-02-09T13:08:03.926Z,3.50
2019-02-09T13:10:32.416Z,1.70
2019-02-09T13:13:20.406Z,2.37
2019-02-09T13:15:48.888Z,2.90
2019-02-09T13:18:17.474Z,2.80
2019-02-09T13:20:46.083Z,3.37
2019-02-09T13:23:14.780Z,3.63
2019-02-09T13:25:43.320Z,2.27
2019-02-09T13:28:12.052Z,3.70
2019-02-09T13:30:42.355Z,2.30
2019-02-09T13:33:11.062Z,2.23
2019-02-09T13:35:39.770Z,2.50
2019-02-09T13:38:08.408Z,3.83
2019-02-09T13:40:37.058Z,2.53
2019-02-09T13:43:05.763Z,2.47
2019-02-09T13:45:36.690Z,3.67
2019-02-09T13:48:24.674Z,2.00
2019-02-09T13:50:53.246Z,2.63
2019-02-09T13:53:21.803Z,3.33
2019-02-09T13:55:50.403Z,1.93
2019-02-09T13:58:18.962Z,2.93
2019-02-09T14:00:47.442Z,2.13
2019-02-09T14:03:16.042Z,4.27
2019-02-09T14:05:44.576Z,4.57
2019-02-09T14:08:13.070Z,5.77
2019-02-09T14:10:41.558Z,3.90
2019-02-09T14:13:14.636Z,2.97
2019-02-09T14:15:40.744Z,2.23
2019-02-09T14:18:30.181Z,1.50
2019-02-09T14:20:58.693Z,2.03
2019-02-09T14:23:27.234Z,4.07
2019-02-09T14:25:55.799Z,1.70
2019-02-09T14:28:26.084Z,3.57
2019-02-09T14:30:54.627Z,2.27
2019-02-09T14:33:23.246Z,7.23
2019-02-09T14:35:51.742Z,2.93
2019-02-09T14:38:20.302Z,3.40
2019-02-09T14:40:48.768Z,4.00
2019-02-09T14:43:17.292Z,3.10
2019-02-09T14:45:45.930Z,2.30
2019-02-09T14:48:14.454Z,2.97
2019-02-09T14:50:42.957Z,3.90
2019-02-09T14:53:11.933Z,2.43
2019-02-09T14:55:40.624Z,3.03
2019-02-09T14:58:09.511Z,4.70
2019-02-09T15:00:43.699Z,2.80
2019-02-09T15:03:13.475Z,2.70
2019-02-09T15:05:42.155Z,3.50
2019-02-09T15:08:10.721Z,2.87
2019-02-09T15:10:39.267Z,4.63
2019-02-09T15:13:09.282Z,2.97
2019-02-09T15:15:46.877Z,3.20
2019-02-09T15:18:15.505Z,5.53
2019-02-09T15:20:49.826Z,3.80
2019-02-09T15:23:18.392Z,4.10
2019-02-09T15:25:47.028Z,4.63
2019-02-09T15:28:15.562Z,2.70
2019-02-09T15:30:44.149Z,2.80
2019-02-09T15:33:12.771Z,3.77
2019-02-09T15:35:41.274Z,3.10
2019-02-09T15:38:09.869Z,3.80
2019-02-09T15:40:38.367Z,3.83
2019-02-09T15:43:06.995Z,4.07
2019-02-09T15:45:35.622Z,2.23
2019-02-09T15:48:05.147Z,6.20
2019-02-09T15:50:33.763Z,3.13
2019-02-09T15:53:02.336Z,5.47
2019-02-09T15:55:30.955Z,4.17
2019-02-09T15:57:59.534Z,5.27
2019-02-09T16:00:34.309Z,5.80
2019-02-09T16:03:02.976Z,4.57
2019-02-09T16:05:31.545Z,5.60
2019-02-09T16:08:00.455Z,3.87
2019-02-09T16:10:29.082Z,5.40
2019-02-09T16:12:57.733Z,4.50
2019-02-09T16:15:31.428Z,5.93
2019-02-09T16:18:00.035Z,4.80
2019-02-09T16:20:31.434Z,3.90
2019-02-09T16:23:00.133Z,3.97
2019-02-09T16:25:28.946Z,3.80
2019-02-09T16:27:57.485Z,3.63
2019-02-09T16:30:27.522Z,6.77
2019-02-09T16:32:56.410Z,4.20
2019-02-09T16:35:28.991Z,5.57
2019-02-09T16:37:57.633Z,4.97
2019-02-09T16:40:28.632Z,3.20
2019-02-09T16:42:57.295Z,5.27
2019-02-09T16:45:33.667Z,4.77
2019-02-09T16:48:02.244Z,4.40
2019-02-09T16:50:30.914Z,5.03
2019-02-09T16:52:59.498Z,4.80
2019-02-09T16:55:28.082Z,5.83
2019-02-09T16:57:56.691Z,3.97
2019-02-09T17:00:43.441Z,5.20
2019-02-09T17:03:13.439Z,5.63
2019-02-09T17:05:42.641Z,4.77
2019-02-09T17:08:11.664Z,7.03
2019-02-09T17:10:40.289Z,5.20
2019-02-09T17:13:09.319Z,5.00
2019-02-09T17:15:38.014Z,5.93
2019-02-09T17:18:07.727Z,3.87
2019-02-09T17:20:36.660Z,8.07
2019-02-09T17:23:05.732Z,5.60
2019-02-09T17:25:34.504Z,5.87
2019-02-09T17:28:03.181Z,6.07
2019-02-09T17:30:33.294Z,3.30
2019-02-09T17:33:01.853Z,3.70
2019-02-09T17:35:30.488Z,5.37
2019-02-09T17:37:59.120Z,3.97
2019-02-09T17:40:39.494Z,4.43
2019-02-09T17:43:09.027Z,6.40
2019-02-09T17:45:49.965Z,5.17
2019-02-09T17:48:18.610Z,3.87
2019-02-09T17:50:47.286Z,3.63
2019-02-09T17:53:15.946Z,3.37
2019-02-09T17:55:44.487Z,4.73
2019-02-09T17:58:12.970Z,3.93
2019-02-09T18:00:45.760Z,4.53
2019-02-09T18:03:14.288Z,3.07
2019-02-09T18:05:42.849Z,4.87
2019-02-09T18:08:11.435Z,4.00
2019-02-09T18:10:39.995Z,4.07
2019-02-09T18:13:08.629Z,6.40
2019-02-09T18:15:37.273Z,4.80
2019-02-09T18:18:06.896Z,6.03
2019-02-09T18:20:35.576Z,6.23
2019-02-09T18:23:04.590Z,9.10
2019-02-09T18:25:33.164Z,5.93
2019-02-09T18:28:01.783Z,3.93
2019-02-09T18:30:31.905Z,6.63
2019-02-09T18:33:00.468Z,4.23
2019-02-09T18:35:29.082Z,4.27
2019-02-09T18:37:57.714Z,7.50
2019-02-09T18:40:27.632Z,5.00
2019-02-09T18:42:56.231Z,4.57
2019-02-09T18:45:29.647Z,3.47
2019-02-09T18:47:58.253Z,5.83
2019-02-09T18:50:28.680Z,8.37
2019-02-09T18:52:57.837Z,3.63
2019-02-09T18:55:27.506Z,3.33
2019-02-09T18:57:56.256Z,3.87
2019-02-09T19:00:27.653Z,5.47
2019-02-09T19:02:56.390Z,4.83
2019-02-09T19:05:24.994Z,6.67
2019-02-09T19:07:53.538Z,6.57
2019-02-09T19:10:24.262Z,4.77
2019-02-09T19:12:52.948Z,6.90
2019-02-09T19:15:23.704Z,7.20
2019-02-09T19:17:52.397Z,2.77
2019-02-09T19:20:39.156Z,4.57
2019-02-09T19:23:08.045Z,6.60
2019-02-09T19:25:37.097Z,3.83
2019-02-09T19:28:06.198Z,2.33
2019-02-09T19:30:35.006Z,4.13
2019-02-09T19:33:04.205Z,7.03
2019-02-09T19:35:32.751Z,5.13
2019-02-09T19:38:01.414Z,5.17
2019-02-09T19:40:30.030Z,4.90
2019-02-09T19:42:59.891Z,4.40
2019-02-09T19:45:33.848Z,4.10
2019-02-09T19:48:02.471Z,4.70
2019-02-09T19:50:31.098Z,5.00
2019-02-09T19:52:59.934Z,4.03
2019-02-09T19:55:31.090Z,3.93
2019-02-09T19:57:59.738Z,6.07
2019-02-09T20:00:33.767Z,4.00
2019-02-09T20:03:02.410Z,4.17
2019-02-09T20:05:30.961Z,4.40
2019-02-09T20:07:59.542Z,5.03
2019-02-09T20:10:31.044Z,4.40
2019-02-09T20:12:59.625Z,5.27
2019-02-09T20:15:28.242Z,2.40
2019-02-09T20:17:56.755Z,4.10
2019-02-09T20:20:25.481Z,3.80
2019-02-09T20:22:54.193Z,2.67
2019-02-09T20:25:24.409Z,3.77
2019-02-09T20:27:53.026Z,7.23
2019-02-09T20:30:26.398Z,6.93
2019-02-09T20:32:55.099Z,3.87
2019-02-09T20:35:27.722Z,5.43
2019-02-09T20:37:55.859Z,3.80
2019-02-09T20:40:32.767Z,2.67
2019-02-09T20:43:03.850Z,4.63
2019-02-09T20:45:31.861Z,2.73
2019-02-09T20:48:00.430Z,4.77
2019-02-09T20:50:31.652Z,4.07
2019-02-09T20:53:00.225Z,7.57
2019-02-09T20:55:28.799Z,2.70
2019-02-09T20:57:57.330Z,3.87
2019-02-09T21:00:30.618Z,2.23
2019-02-09T21:02:59.247Z,3.80
2019-02-09T21:05:35.616Z,5.07
2019-02-09T21:07:58.135Z,3.97
2019-02-09T21:10:40.588Z,3.70
2019-02-09T21:13:09.125Z,3.47
2019-02-09T21:15:37.837Z,4.83
2019-02-09T21:18:07.324Z,5.23
2019-02-09T21:20:36.537Z,2.70
2019-02-09T21:23:05.821Z,4.50
2019-02-09T21:25:42.956Z,2.93
2019-02-09T21:28:11.515Z,6.37
2019-02-09T21:30:40.114Z,5.93
2019-02-09T21:33:08.738Z,5.60
2019-02-09T21:35:43.847Z,5.97
2019-02-09T21:38:07.717Z,6.03
2019-02-09T21:40:36.361Z,5.20
2019-02-09T21:43:05.687Z,4.20
2019-02-09T21:45:34.366Z,5.60
2019-02-09T21:48:02.848Z,3.10
2019-02-09T21:50:36.139Z,2.77
2019-02-09T21:53:05.874Z,10.13
2019-02-09T21:55:34.697Z,7.20
2019-02-09T21:58:03.334Z,6.53
2019-02-09T22:00:36.524Z,3.33
2019-02-09T22:03:06.984Z,3.43
2019-02-09T22:05:35.598Z,2.97
2019-02-09T22:08:04.777Z,4.90
2019-02-09T22:10:34.215Z,5.30
2019-02-09T22:13:02.908Z,3.60
2019-02-09T22:15:38.444Z,3.87
2019-02-09T22:18:02.726Z,4.43
2019-02-09T22:20:31.397Z,3.03
2019-02-09T22:23:00.001Z,3.07
2019-02-09T22:25:29.913Z,3.67
2019-02-09T22:27:58.757Z,4.67
2019-02-09T22:30:31.828Z,3.60
2019-02-09T22:33:01.114Z,4.40
2019-02-09T22:35:29.742Z,2.37
2019-02-09T22:37:58.732Z,4.33
2019-02-09T22:40:40.878Z,2.77
2019-02-09T22:43:09.721Z,2.77
2019-02-09T22:45:38.308Z,5.20
2019-02-09T22:48:08.406Z,3.97
2019-02-09T22:50:42.196Z,5.43
2019-02-09T22:53:10.891Z,4.10
2019-02-09T22:55:39.525Z,5.50
2019-02-09T22:58:08.285Z,3.50
2019-02-09T23:00:53.371Z,2.83
2019-02-09T23:03:24.905Z,4.20
2019-02-09T23:06:14.406Z,5.33
2019-02-09T23:08:52.022Z,4.30
2019-02-09T23:11:20.851Z,4.47
2019-02-09T23:13:49.384Z,2.23
2019-02-09T23:16:17.873Z,4.37
2019-02-09T23:18:46.447Z,5.70
2019-02-09T23:21:15.002Z,3.47
2019-02-09T23:23:43.574Z,4.57
2019-02-09T23:26:12.159Z,5.07
2019-02-09T23:28:40.707Z,6.67
2019-02-09T23:31:09.267Z,4.53
2019-02-09T23:33:37.840Z,4.37
2019-02-09T23:36:06.315Z,4.67
2019-02-09T23:38:34.814Z,3.80
2019-02-09T23:41:03.396Z,3.90
2019-02-09T23:43:31.938Z,6.23
2019-02-09T23:46:00.492Z,2.40
2019-02-09T23:48:28.988Z,4.77
2019-02-09T23:50:57.543Z,4.63
2019-02-09T23:53:26.014Z,4.23
2019-02-09T23:55:54.520Z,3.77
2019-02-09T23:58:23.083Z,3.07
